Falmouth, Massachusetts
Current Conditions -  °F | °C
As of 9:15 AM on Friday 24 Oct 2014 (Local Time) from KFMH Reporting Station
Haze Haze  
Wind Chill: 50°   Ceiling: 1300
Heat Index: 50°   Visibility: 6mi
Dew Point: 48°   Wind: 13mph
Humidity: 94%   Direction: 330°NNW
Pressure: 29.67"   Gusts: NA
Location:  41.55°N, 70.61°W
Report Text: KFMH 241315Z AUTO 33011KT 6SM BR SCT009 BKN013 10/09 A2967 RMK AO2
Loading
Personal Weather Stations






























Interactive Weather Map
Tropical Storm Tracking
New forecast layout! Learn more

10-Day Weather Forecast

Advertisements
Track Severe Weather on mobile